createdAt,value
2022-10-05T00:04:59.774Z,28.65
2022-10-05T00:10:14.739Z,27.23
2022-10-05T00:15:20.431Z,18.42
2022-10-05T00:20:25.948Z,18.23
2022-10-05T00:25:30.219Z,23.73
2022-10-05T00:30:34.913Z,26.63
2022-10-05T00:35:38.139Z,36.75
2022-10-05T00:40:56.166Z,18.17
2022-10-05T00:46:07.692Z,15.95
2022-10-05T00:51:27.984Z,19.25
2022-10-05T00:57:01.041Z,18.10
2022-10-05T01:02:10.522Z,24.92
2022-10-05T01:07:22.387Z,16.88
2022-10-05T01:12:33.173Z,27.52
2022-10-05T01:17:44.809Z,26.73
2022-10-05T01:23:08.495Z,18.88
2022-10-05T01:28:20.201Z,22.25
2022-10-05T01:33:31.742Z,18.60
2022-10-05T01:38:44.636Z,26.63
2022-10-05T01:43:52.719Z,30.40
2022-10-05T01:49:12.551Z,38.50
2022-10-05T01:54:28.743Z,26.50
2022-10-05T01:59:48.046Z,33.80
2022-10-05T02:05:01.832Z,34.65
2022-10-05T02:10:11.141Z,34.47
2022-10-05T02:15:19.570Z,31.50
2022-10-05T02:20:26.952Z,33.60
2022-10-05T02:25:34.336Z,35.30
2022-10-05T02:30:45.930Z,36.90
2022-10-05T02:35:49.557Z,32.88
2022-10-05T02:40:58.748Z,29.52
2022-10-05T02:46:13.327Z,32.70
2022-10-05T02:51:24.093Z,27.58
2022-10-05T02:56:33.191Z,32.70
2022-10-05T03:01:47.778Z,29.25
2022-10-05T03:06:59.431Z,28.05
2022-10-05T03:12:15.642Z,30.55
2022-10-05T03:17:23.513Z,24.85
2022-10-05T03:22:39.484Z,23.40
2022-10-05T03:27:49.147Z,19.83
2022-10-05T03:33:03.655Z,22.58
2022-10-05T03:38:17.216Z,23.92
2022-10-05T03:43:44.087Z,21.83
2022-10-05T03:48:53.605Z,27.23
2022-10-05T03:54:00.931Z,20.23
2022-10-05T03:59:13.059Z,22.75
2022-10-05T04:04:26.133Z,27.23
2022-10-05T04:09:35.045Z,19.80
2022-10-05T04:14:42.123Z,21.10
2022-10-05T04:19:53.524Z,31.20
2022-10-05T04:25:03.310Z,25.30
2022-10-05T04:30:12.590Z,24.27
2022-10-05T04:35:33.498Z,23.00
2022-10-05T04:40:56.119Z,23.77
2022-10-05T04:46:16.751Z,25.08
2022-10-05T04:51:36.770Z,29.98
2022-10-05T04:56:46.587Z,25.05
2022-10-05T05:02:06.560Z,24.38
2022-10-05T05:07:23.495Z,21.58
2022-10-05T05:12:35.169Z,17.75
2022-10-05T05:17:55.781Z,27.70
2022-10-05T05:23:11.627Z,21.38
2022-10-05T05:28:24.250Z,31.58
2022-10-05T05:33:38.441Z,26.13
2022-10-05T05:38:50.651Z,20.65
2022-10-05T05:44:05.142Z,23.95
2022-10-05T05:49:17.196Z,23.02
2022-10-05T05:54:32.363Z,36.10
2022-10-05T05:59:50.902Z,38.22
2022-10-05T06:04:57.931Z,34.97
2022-10-05T06:10:15.459Z,42.35
2022-10-05T06:15:36.262Z,42.22
2022-10-05T06:20:45.998Z,27.35
2022-10-05T06:26:15.163Z,22.85
2022-10-05T06:31:30.556Z,24.48
2022-10-05T06:36:41.677Z,27.70
2022-10-05T06:42:02.107Z,51.88
2022-10-05T06:47:31.230Z,28.42
2022-10-05T06:53:02.223Z,25.58
2022-10-05T06:58:26.382Z,26.52
2022-10-05T07:03:42.099Z,29.30
2022-10-05T07:08:58.031Z,28.58
2022-10-05T07:14:16.017Z,29.30
2022-10-05T07:19:30.303Z,35.75
2022-10-05T07:24:35.160Z,30.05
2022-10-05T07:29:49.073Z,30.05
2022-10-05T07:35:03.236Z,32.08
2022-10-05T07:40:14.198Z,28.73
2022-10-05T07:45:29.087Z,23.77
2022-10-05T07:50:38.066Z,21.80
2022-10-05T07:55:50.024Z,15.18
2022-10-05T08:01:04.704Z,14.07
2022-10-05T08:06:15.552Z,13.38
2022-10-05T08:11:22.917Z,14.60
2022-10-05T08:16:30.608Z,10.48
2022-10-05T08:21:38.307Z,8.75
2022-10-05T08:26:52.752Z,6.50
2022-10-05T08:32:00.307Z,7.95
2022-10-05T08:37:08.947Z,6.47
2022-10-05T08:42:52.319Z,9.93
2022-10-05T08:48:16.058Z,9.52
2022-10-05T08:53:50.359Z,8.77
2022-10-05T08:59:37.338Z,8.98
2022-10-05T09:04:58.475Z,3.17
2022-10-05T09:10:25.795Z,7.00
2022-10-05T09:15:38.332Z,6.85
2022-10-05T09:20:50.341Z,3.97
2022-10-05T09:25:58.995Z,7.07
2022-10-05T09:31:20.599Z,4.30
2022-10-05T09:36:53.984Z,6.47
2022-10-05T09:42:43.342Z,4.75
2022-10-05T09:48:26.289Z,5.38
2022-10-05T09:53:52.114Z,4.82
2022-10-05T09:59:32.949Z,5.40
2022-10-05T10:05:20.283Z,4.63
2022-10-05T10:10:48.181Z,2.92
2022-10-05T10:16:09.666Z,6.25
2022-10-05T10:21:40.356Z,3.10
2022-10-05T10:27:16.308Z,4.30
2022-10-05T10:32:52.348Z,2.63
2022-10-05T10:38:24.510Z,7.33
2022-10-05T10:43:53.023Z,4.85
2022-10-05T10:49:03.548Z,6.22
2022-10-05T10:54:42.467Z,5.82
2022-10-05T11:00:18.334Z,5.50
2022-10-05T11:05:31.567Z,4.83
2022-10-05T11:10:58.873Z,3.80
2022-10-05T11:16:28.115Z,5.32
2022-10-05T11:21:36.763Z,8.18
2022-10-05T11:26:58.682Z,6.25
2022-10-05T11:32:27.465Z,5.07
2022-10-05T11:37:59.837Z,6.07
2022-10-05T11:43:41.763Z,4.75
2022-10-05T11:49:04.497Z,3.70
2022-10-05T11:54:19.498Z,4.80
2022-10-05T11:59:30.505Z,12.23
2022-10-05T12:04:40.503Z,2.30
2022-10-05T12:10:17.616Z,2.85
2022-10-05T12:15:26.954Z,8.07
2022-10-05T12:20:39.033Z,3.67
2022-10-05T12:25:46.541Z,3.55
2022-10-05T12:31:13.394Z,6.72
2022-10-05T12:36:26.350Z,2.80
2022-10-05T12:41:36.494Z,9.93
2022-10-05T12:46:47.813Z,8.65
2022-10-05T12:51:58.468Z,3.38
2022-10-05T12:57:12.053Z,3.25
2022-10-05T13:02:26.527Z,2.25
2022-10-05T13:07:49.865Z,3.83
2022-10-05T13:13:05.714Z,5.93
2022-10-05T13:18:19.869Z,4.35
2022-10-05T13:23:31.779Z,5.63
2022-10-05T13:28:42.632Z,3.75
2022-10-05T13:34:08.475Z,8.68
2022-10-05T13:39:29.161Z,3.67
2022-10-05T13:44:38.612Z,3.97
2022-10-05T13:49:48.717Z,5.25
2022-10-05T13:54:59.769Z,2.72
2022-10-05T14:00:07.144Z,3.20
2022-10-05T14:05:20.630Z,6.63
2022-10-05T14:10:35.656Z,3.17
2022-10-05T14:15:42.099Z,2.35
2022-10-05T14:20:59.376Z,2.17
2022-10-05T14:26:04.535Z,6.70
2022-10-05T14:31:15.441Z,3.58
2022-10-05T14:36:35.911Z,5.32
2022-10-05T14:41:49.746Z,5.50
2022-10-05T14:46:55.474Z,8.18
2022-10-05T14:51:58.741Z,7.55
2022-10-05T14:57:08.214Z,8.70
2022-10-05T15:02:38.559Z,12.10
2022-10-05T15:07:44.380Z,13.35
2022-10-05T15:12:49.181Z,11.98
2022-10-05T15:17:58.663Z,12.48
2022-10-05T15:23:14.191Z,7.53
2022-10-05T15:28:32.316Z,8.27
2022-10-05T15:33:39.476Z,6.68
2022-10-05T15:44:10.505Z,8.30
2022-10-05T15:49:25.097Z,17.52
2022-10-05T15:55:07.432Z,34.03
2022-10-05T16:00:15.934Z,12.50
2022-10-05T16:05:51.412Z,7.50
2022-10-05T16:10:54.444Z,11.00
2022-10-05T16:16:12.565Z,9.98
2022-10-05T16:21:26.515Z,9.35
2022-10-05T16:26:44.382Z,9.98
2022-10-05T16:31:57.857Z,11.88
2022-10-05T16:37:10.335Z,7.43
2022-10-05T16:42:25.360Z,8.00
2022-10-05T16:47:43.122Z,10.07
2022-10-05T16:52:52.103Z,7.90
2022-10-05T16:57:57.124Z,9.65
2022-10-05T17:03:13.733Z,7.13
2022-10-05T17:08:36.768Z,8.63
2022-10-05T17:14:16.043Z,8.10
2022-10-05T17:20:00.096Z,16.13
2022-10-05T17:25:13.061Z,7.88
2022-10-05T17:30:38.802Z,14.60
2022-10-05T17:35:52.029Z,12.70
2022-10-05T17:41:15.682Z,8.35
2022-10-05T17:46:39.215Z,9.25
2022-10-05T17:52:22.137Z,9.60
2022-10-05T17:57:27.680Z,8.90
2022-10-05T18:02:42.934Z,14.65
2022-10-05T18:07:48.617Z,19.02
2022-10-05T18:13:12.182Z,12.32
2022-10-05T18:18:55.858Z,8.00
2022-10-05T18:24:17.149Z,7.30
2022-10-05T18:29:49.837Z,7.28
2022-10-05T18:35:02.027Z,6.05
2022-10-05T18:40:22.482Z,8.23
2022-10-05T18:45:33.764Z,9.35
2022-10-05T18:50:44.983Z,5.53
2022-10-05T18:55:56.788Z,7.43
2022-10-05T19:01:17.837Z,8.02
2022-10-05T19:06:26.082Z,6.10
2022-10-05T19:11:37.540Z,16.45
2022-10-05T19:16:56.542Z,7.72
2022-10-05T19:22:05.080Z,14.38
2022-10-05T19:27:18.465Z,8.35
2022-10-05T19:32:31.388Z,9.07
2022-10-05T19:37:43.278Z,6.75
2022-10-05T19:43:10.764Z,10.73
2022-10-05T19:48:26.930Z,15.13
2022-10-05T19:53:32.247Z,17.57
2022-10-05T19:58:40.608Z,12.27
2022-10-05T20:03:49.023Z,8.40
2022-10-05T20:08:53.831Z,11.32
2022-10-05T20:14:20.807Z,7.85
2022-10-05T20:24:51.772Z,5.70
2022-10-05T20:29:55.823Z,11.00
2022-10-05T20:34:58.583Z,11.57
2022-10-05T20:40:02.123Z,7.85
2022-10-05T20:45:11.817Z,9.48
2022-10-05T20:50:15.005Z,12.68
2022-10-05T20:55:17.993Z,8.93
2022-10-05T21:00:22.048Z,10.75
2022-10-05T21:05:25.070Z,5.18
2022-10-05T21:10:27.788Z,8.23
2022-10-05T21:15:32.400Z,9.50
2022-10-05T21:20:35.114Z,10.50
2022-10-05T21:25:37.893Z,16.95
2022-10-05T21:30:41.983Z,13.60
2022-10-05T21:35:44.741Z,6.22
2022-10-05T21:40:47.439Z,14.50
2022-10-05T21:45:51.622Z,14.45
2022-10-05T21:50:54.690Z,10.07
2022-10-05T21:56:02.813Z,7.05
2022-10-05T22:01:07.861Z,10.77
2022-10-05T22:06:10.811Z,14.45
2022-10-05T22:11:16.778Z,11.07
2022-10-05T22:16:24.391Z,5.90
2022-10-05T22:21:27.825Z,5.32
2022-10-05T22:26:31.143Z,12.57
2022-10-05T22:31:35.718Z,12.88
2022-10-05T22:36:38.487Z,7.03
2022-10-05T22:41:41.223Z,7.18
2022-10-05T22:46:45.408Z,10.05
2022-10-05T22:51:49.166Z,7.20
2022-10-05T22:56:51.870Z,14.63
2022-10-05T23:01:56.012Z,20.25
2022-10-05T23:06:59.199Z,6.40
2022-10-05T23:12:02.083Z,11.43
2022-10-05T23:17:07.823Z,5.28
2022-10-05T23:22:10.517Z,9.65
2022-10-05T23:27:13.267Z,12.00
2022-10-05T23:32:17.341Z,13.50
2022-10-05T23:37:23.130Z,15.48
2022-10-05T23:42:25.913Z,14.02
2022-10-05T23:47:31.136Z,10.68
2022-10-05T23:52:33.898Z,8.27
2022-10-05T23:57:36.619Z,11.18
